Flight Track Log - Related Links

Times and Time Zones

All times are in EDT time to prevent confusion due to time zone crossing. See the UAL822 flight status page for this flight to view local times or setup timezone preferences in your user account.

Time Position Orientation Groundspeed Altitude Reporting Facility
EDT Latitude Longitude Course Direction KTS MPH feet Rate Location/Type
Mon 10:58:45 AM 32.9167 -97.0333 North 167 192 1,300  Level Dallas / Fort Worth TRACON
Mon 11:00:00 AM 33.0290 -96.9362 112° Southeast  Level Estimated
Mon 11:00:27 AM 33.0167 -97.0167 112° Southeast 246 283 5,000  Level Dallas / Fort Worth TRACON
Mon 11:01:00 AM 32.9403 -96.8000 North  Level FlightAware Approximate
Mon 11:01:27 AM 33.0833 -97.0167 360° North 253 291 8,400  Level Dallas / Fort Worth TRACON
Mon 11:02:00 AM 33.0513 -96.8000 North  Level FlightAware Approximate
Mon 11:03:00 AM 33.1621 -96.8079 356° North  Level FlightAware Approximate
Mon 11:03:00 AM 33.2218 -96.8947 36° Northeast  Level Estimated
Mon 11:04:00 AM 33.2729 -96.8167 North  Level FlightAware Approximate
Mon 11:05:03 AM 33.3769 -96.8661 36° Northeast 345 397 17,000  Level Fort Worth Center
Mon 11:06:03 AM 33.4664 -96.8158 25° Northeast 345 397 19,000 2,300 Climbing Fort Worth Center
Mon 11:07:03 AM 33.5603 -96.7553 28° Northeast 364 419 21,600 2,100 Climbing Fort Worth Center
Mon 11:08:03 AM 33.6517 -96.6872 32° Northeast 373 429 23,200 1,600 Climbing Fort Worth Center
Mon 11:10:00 AM 33.8458 -96.3389 36° Northeast  Level Estimated
Mon 11:10:03 AM 33.8342 -96.5283 36° Northeast 400 460 26,400  Level Fort Worth Center
Mon 11:11:38 AM 33.9864 -96.3939 36° Northeast 426 490 28,900 1,450 Climbing Kansas City Center
Mon 11:12:03 AM 34.0269 -96.3608 34° Northeast 415 478 29,300 1,194 Climbing Fort Worth Center
Mon 11:14:00 AM 34.2006 -96.1912 32° Northeast  Level FlightAware Approximate
Mon 11:14:44 AM 34.2900 -96.1322 32° Northeast 451 519 32,600  Level Kansas City Center
Mon 11:15:03 AM 34.3314 -96.0931 38° Northeast 448 516 33,300 1,443 Climbing Fort Worth Center
Mon 11:16:03 AM 34.4325 -96.0061 35° Northeast 448 516 34,500 1,107 Climbing Fort Worth Center
Mon 11:17:51 AM 34.6133 -95.8478 36° Northeast 451 519 36,400 882 Climbing Kansas City Center
Mon 11:18:53 AM 34.7131 -95.7617 35° Northeast 446 513 37,000 290 Climbing Kansas City Center
Mon 11:19:55 AM 34.8042 -95.6803 36° Northeast 441 507 37,000  Level Kansas City Center
Mon 11:21:44 AM 35.0011 -95.5108 35° Northeast 441 507 37,000  Level Memphis Center
Mon 11:22:44 AM 35.0986 -95.4228 36° Northeast 441 507 37,000  Level Memphis Center
Mon 11:23:44 AM 35.1958 -95.3347 36° Northeast 441 507 37,000  Level Memphis Center
Mon 11:24:44 AM 35.2931 -95.2489 36° Northeast 436 502 37,000  Level Memphis Center
Mon 11:25:44 AM 35.3925 -95.1631 35° Northeast 436 502 37,000  Level Memphis Center
Mon 11:26:44 AM 35.4875 -95.0742 37° Northeast 431 496 37,000  Level Memphis Center
Mon 11:29:13 AM 35.7214 -94.8606 37° Northeast 432 497 37,000  Level Kansas City Center
Mon 11:29:44 AM 35.7767 -94.8117 36° Northeast 426 490 37,000  Level Memphis Center
Mon 11:31:44 AM 35.9728 -94.6325 36° Northeast 426 490 37,000 33 Level Memphis Center
Mon 11:32:44 AM 36.0697 -94.5425 37° Northeast 426 490 37,100  Climbing Memphis Center
Mon 11:33:44 AM 36.1644 -94.4547 37° Northeast 426 490 37,000 -37 Descending Memphis Center
Mon 11:35:25 AM 36.3206 -94.3108 37° Northeast 433 498 37,000  Level Kansas City Center
Mon 11:36:27 AM 36.4161 -94.2217 37° Northeast 431 496 37,000  Level Kansas City Center
Mon 11:37:29 AM 36.5139 -94.1317 36° Northeast 436 502 37,000  Level Kansas City Center
Mon 11:39:00 AM 36.6454 -93.9924 37° Northeast  Level FlightAware Approximate
Mon 11:40:35 AM 36.8208 -93.8436 36° Northeast 432 497 37,000  Level Kansas City Center
Mon 11:41:37 AM 36.9169 -93.7533 37° Northeast 422 486 37,100  Climbing Kansas City Center
Mon 11:42:39 AM 37.0117 -93.6628 37° Northeast 426 490 37,000 -32 Descending Kansas City Center
Mon 11:44:00 AM 37.1291 -93.5489 38° Northeast  Level FlightAware Approximate
Mon 11:44:43 AM 37.1997 -93.4842 38° Northeast 424 488 37,000  Level Kansas City Center
Mon 11:45:45 AM 37.2933 -93.3956 37° Northeast 421 484 37,000  Level Kansas City Center
Mon 11:46:00 AM 37.2814 -93.3966 36° Northeast  Level FlightAware Approximate
Mon 11:47:00 AM 37.4000 -93.2861 37° Northeast  Level FlightAware Approximate
Mon 11:47:49 AM 37.5047 -93.1997 37° Northeast 425 489 37,000  Level Kansas City Center
Mon 11:49:00 AM 37.6058 -93.0963 39° Northeast  Level FlightAware Approximate
Mon 11:50:54 AM 37.7944 -92.9283 37° Northeast 431 496 37,000  Level Kansas City Center
Mon 11:52:58 AM 37.9894 -92.7464 36° Northeast 432 497 37,000  Level Kansas City Center
Mon 11:54:00 AM 38.0878 -92.6522 37° Northeast 437 503 37,000  Level Kansas City Center
Mon 11:56:00 AM 38.2225 -92.5119 37° Northeast  Level FlightAware Approximate
Mon 11:56:04 AM 38.2883 -92.4644 36° Northeast 438 504 37,000  Level Kansas City Center
Mon 11:57:06 AM 38.4056 -92.3517 37° Northeast 436 502 37,000 -290 Level Kansas City Center
Mon 11:59:10 AM 38.5986 -92.1664 37° Northeast 429 494 36,100 -1,161 Descending Kansas City Center
Mon 12:00:12 PM 38.6914 -92.0775 37° Northeast 418 481 33,400 -1,645 Descending Kansas City Center
Mon 12:02:16 PM 38.8856 -91.8897 37° Northeast 436 502 31,000 -774 Descending Kansas City Center
Mon 12:03:18 PM 38.9850 -91.7944 37° Northeast 444 511 31,000  Level Kansas City Center
Mon 12:05:00 PM 39.1323 -91.6346 38° Northeast  Level FlightAware Approximate
Mon 12:06:42 PM 39.3147 -91.4722 37° Northeast 441 507 31,000  Level Chicago Center
Mon 12:07:25 PM 39.3892 -91.3983 37° Northeast 446 513 31,000 -1,429 Level Kansas City Center
Mon 12:09:30 PM 39.6008 -91.1892 37° Northeast 435 501 27,000 -1,290 Descending Kansas City Center
Mon 12:10:31 PM 39.6981 -91.0936 37° Northeast 434 499 27,000  Level Kansas City Center
Mon 12:12:00 PM 39.7597 -91.0073 37° Northeast  Level FlightAware Approximate
Mon 12:12:00 PM 39.7905 -90.9765 37° Northeast  Level FlightAware Approximate
Mon 12:12:35 PM 39.8992 -90.8911 37° Northeast 440 506 27,000  Level Kansas City Center
Mon 12:13:37 PM 39.9950 -90.7933 38° Northeast 439 505 27,000  Level Kansas City Center
Mon 12:14:38 PM 40.0917 -90.6950 38° Northeast 439 505 27,000  Level Kansas City Center
Mon 12:16:00 PM 40.2281 -90.5569 38° Northeast 441 507 27,000  Level Chicago Center
Mon 12:17:00 PM 40.3086 -90.4576 39° Northeast  Level FlightAware Approximate
Mon 12:18:46 PM 40.4797 -90.2992 37° Northeast 440 506 27,000  Level Kansas City Center
Mon 12:19:05 PM 40.5178 -90.2594 38° Northeast 438 504 27,000  Level Chicago Center
Mon 12:20:07 PM 40.6278 -90.1458 38° Northeast 441 507 27,000  Level Chicago Center
Mon 12:21:09 PM 40.7244 -90.0461 38° Northeast 443 510 27,000  Level Chicago Center
Mon 12:22:11 PM 40.8231 -89.9447 38° Northeast 449 517 27,000 -935 Level Chicago Center
Mon 12:24:00 PM 40.9098 -89.8237 37° Northeast  Level FlightAware Approximate
Mon 12:24:15 PM 41.0078 -89.7497 39° Northeast 435 501 24,100  Level Chicago Center
Mon 12:26:00 PM 41.1500 -89.5764 90° East  Level FlightAware Approximate
Mon 12:26:18 PM 41.1922 -89.5122 90° East 431 496 22,100  Level Chicago Center
Mon 12:27:21 PM 41.2447 -89.3794 62° Northeast 411 473 19,900 -2,112 Descending Chicago Center
Mon 12:28:23 PM 41.2975 -89.2492 62° Northeast 403 464 17,700 -2,081 Descending Chicago Center
Mon 12:29:25 PM 41.3456 -89.1247 63° Northeast 382 440 15,600 -2,081 Descending Chicago Center
Mon 12:30:27 PM 41.3944 -89.0058 61° Northeast 369 425 13,400 -2,081 Descending Chicago Center
Mon 12:31:29 PM 41.4400 -88.8881 63° Northeast 362 417 11,300 -778 Descending Chicago Center
Mon 12:33:32 PM 41.5333 -88.6667 61° Northeast 286 329 11,000 -145 Descending Chicago TRACON
Mon 12:35:00 PM 41.5994 -88.4686 66° East  Level FlightAware Approximate
Mon 12:35:37 PM 41.6186 -88.4911 66° East 286 329 10,700  Level Chicago Center
Mon 12:36:39 PM 41.6597 -88.4031 58° Northeast 282 325 9,200 -1,452 Descending Chicago Center
Mon 12:37:41 PM 41.7003 -88.3178 57° Northeast 275 316 7,700 -1,645 Descending Chicago Center
Mon 12:38:43 PM 41.7483 -88.2175 57° Northeast 269 310 5,800 -1,597 Descending Chicago Center
Mon 12:39:45 PM 41.7867 -88.1356 58° Northeast 264 304 4,400 -871 Descending Chicago Center
Mon 12:40:47 PM 41.8247 -88.0553 58° Northeast 260 299 4,000 -816 Descending Chicago Center
Mon 12:43:33 PM 41.9333 -87.9333 40° Northeast 127 146 1,300 -976 Descending Chicago TRACON

Login

Don't have an account? Register now (free) for customized features, flight alerts, and more!